Scroll for more >

River gauges, storages, and weirs in the Murray–Darling Basin

Type Locationsort descending River Water level Flow Volume Release Water temp Salinity Rainfall
River Gauge Albury (Union Bridge) Murray 0.76 m 25/05/2018 14:00 Not measured Not measured Not measured 12.5°C 25/05/2018 14:00 50.7 μS/cm 25/05/2018 14:00 Not measured Full data
River Gauge Balranald Murrumbidgee 0.67 m 25/05/2018 13:45 321 ML/Day 25/05/2018 13:45 Not measured Not measured 13.0°C 25/05/2018 13:45 137.3 μS/cm 25/05/2018 13:45 Not measured Full data
River Gauge Bandiana Kiewa 1.32 m 25/05/2018 13:45 914 ML/Day 25/05/2018 13:45 Not measured Not measured 10.8°C 25/05/2018 13:45 22.3 μS/cm 25/05/2018 13:45 Not measured Full data
River Gauge Biggara Murray 0.33 m 25/05/2018 14:00 301 ML/Day 25/05/2018 14:00 Not measured Not measured 9.1°C 25/05/2018 14:00 51.5 μS/cm 25/05/2018 14:00 0.0 mm 25/05/2018 9:00 Full data
River Gauge Bringenbrong Bridge Murray 2.03 m 25/05/2018 14:00 7652 ML/Day 25/05/2018 14:00 Not measured Not measured Not measured Not measured Not measured Full data
River Gauge Burtundy Darling 0.68 m 25/05/2018 14:00 60 ML/Day 25/05/2018 14:00 Not measured Not measured 14.5°C 25/05/2018 13:45 713.1 μS/cm 25/05/2018 13:45 Not measured Full data
River Gauge Colemans Mitta 1.17 m 25/05/2018 14:15 499 ML/Day 25/05/2018 14:15 Not measured Not measured 10.5°C 25/05/2018 13:45 32.6 μS/cm 25/05/2018 13:45 Not measured Full data
River Gauge Colemans Mitta 1.17 m 25/05/2018 14:15 499 ML/Day 25/05/2018 14:15 Not measured Not measured 10.5°C 25/05/2018 13:45 32.6 μS/cm 25/05/2018 13:45 Not measured Full data
River Gauge Colignan Murray 2.14 m 25/05/2018 13:45 7901 ML/Day 25/05/2018 13:45 Not measured Not measured 13.1°C 25/05/2018 13:45 99.2 μS/cm 25/05/2018 13:45 Not measured Full data
River Gauge Corowa Murray 0.7 m 25/05/2018 14:00 1890 ML/Day 25/05/2018 14:00 Not measured Not measured 13.3°C 25/05/2018 14:00 52.8 μS/cm 25/05/2018 14:00 Not measured Full data
Storage Dartmouth Dam Mitta 479.02 m 25/05/2018 14:15 Not measured 3415 GL 25/05/2018 14:15 Not measured Not measured Not measured Not measured Full data
Storage Dartmouth Dam Mitta 479.02 m 25/05/2018 14:15 Not measured 3415 GL 25/05/2018 14:15 Not measured Not measured Not measured Not measured Full data
River Gauge Doctors Point Murray 1.53 m 25/05/2018 14:00 1458 ML/Day 25/05/2018 14:00 Not measured Not measured 11.8°C 25/05/2018 14:00 44.8 μS/cm 25/05/2018 14:00 Not measured Full data
River Gauge Echuca Wharf Murray 86.67 m 25/05/2018 11:45 Not measured Not measured Not measured Not measured Not measured Not measured Full data
River Gauge Edward Escape Wakool -1.21 m 25/05/2018 13:45 1 ML/Day 24/05/2018 7:45 Not measured Not measured 14.6°C 25/05/2018 13:45 18.9 μS/cm 25/05/2018 13:45 Not measured Full data
River Gauge Edward River Offtake Murray 2.34 m 25/05/2018 14:30 1478 ML/Day 25/05/2018 14:30 Not measured Not measured 12.6°C 25/05/2018 13:45 42.6 μS/cm 25/05/2018 13:45 Not measured Full data
Weirs Euston Weir Downstream Murray 43.49 m 25/05/2018 13:45 8429 ML/Day 25/05/2018 13:45 Not measured Not measured 12.8°C 25/05/2018 13:45 85.1 μS/cm 25/05/2018 13:45 Not measured Full data
Weirs Euston Weir Upstream Murray 47.29 m 25/05/2018 8:00 Not measured 33 GL 25/05/2018 7:45 Not measured Not measured Not measured 0.0 mm 24/05/2018 9:00 Full data
River Gauge Flow to South Australia Murray Not measured Not measured Not measured 3626.5 ML/d25/05/2018 7:45 Not measured Not measured Not measured Full data
River Gauge Frenchman Creek Murray 27.01 m 25/05/2018 7:45 Not measured Not measured 4860.4 ML/d25/05/2018 7:45 Not measured Not measured Not measured Full data
River Gauge Gulpa Creek Offtake Murray 2.34 m 25/05/2018 14:00 275 ML/Day 25/05/2018 14:00 Not measured Not measured Not measured Not measured Not measured Full data
River Gauge Hinnomunjie Mitta 0.63 m 25/05/2018 13:45 355 ML/Day 25/05/2018 13:45 Not measured Not measured 8.8°C 25/05/2018 13:45 35.5 μS/cm 25/05/2018 13:45 0.0 mm 25/05/2018 9:00 Full data
Storage Hume Dam Murray 179.35 m 25/05/2018 14:15 Not measured 1056 GL 25/05/2018 14:15 630.0 ML/d25/05/2018 8:00 Not measured Not measured 0.0 mm 25/05/2018 9:00 Full data
River Gauge Jingellic Murray 2.17 m 25/05/2018 13:45 8555 ML/Day 25/05/2018 13:45 Not measured Not measured 11.1°C 25/05/2018 13:45 33.0 μS/cm 25/05/2018 13:45 0.2 mm 25/05/2018 9:00 Full data
River Gauge Kerang Loddon 0.46 m 25/05/2018 13:45 413 ML/Day 25/05/2018 13:45 Not measured Not measured 12.2°C 25/05/2018 13:45 231.7 μS/cm 25/05/2018 13:45 Not measured Full data
River Gauge Lake Albert Murray 0.57 m 25/05/2018 5:45 Not measured 240 GL 25/05/2018 5:45 Not measured Not measured Not measured Not measured Full data
River Gauge Lake Alexandrina Murray 0.54 m 25/05/2018 5:45 Not measured 1475 GL 25/05/2018 5:45 Not measured Not measured 836.3 μS/cm 25/05/2018 12:45 Not measured Full data
Storage Lake Victoria Murray 23.34 m 25/05/2018 12:45 Not measured 279 GL 25/05/2018 12:45 Not measured 13.1°C 25/05/2018 12:45 201.0 μS/cm 25/05/2018 12:45 Not measured Full data
Weirs Lock 1 Downstream Murray 0.5 m 25/05/2018 12:45 Not measured Not measured 3504.9 ML/d25/05/2018 7:45 Not measured Not measured Not measured Full data
Weirs Lock 1 Upstream Murray 3.23 m 25/05/2018 12:45 Not measured Not measured Not measured 14.9°C 25/05/2018 12:45 358.8 μS/cm 25/05/2018 12:45 Not measured Full data
Weirs Lock 2 Downstream Murray 3.34 m 25/05/2018 12:45 Not measured Not measured Not measured Not measured Not measured Not measured Full data
Weirs Lock 2 Upstream Murray 6.16 m 25/05/2018 12:45 Not measured Not measured Not measured 14.9°C 25/05/2018 12:45 356.9 μS/cm 25/05/2018 12:45 Not measured Full data
Weirs Lock 3 Downstream Murray 6.32 m 25/05/2018 12:45 Not measured Not measured Not measured Not measured Not measured Not measured Full data
Weirs Lock 3 Upstream Murray 9.87 m 25/05/2018 12:45 Not measured Not measured Not measured Not measured Not measured Not measured Full data
Weirs Lock 4 Downstream Murray 10.27 m 25/05/2018 12:45 Not measured Not measured Not measured Not measured Not measured Not measured Full data
Weirs Lock 4 Upstream Murray 13.26 m 25/05/2018 12:45 Not measured Not measured Not measured Not measured Not measured Not measured Full data
Weirs Lock 5 Downstream Murray 13.32 m 25/05/2018 12:45 Not measured Not measured Not measured Not measured Not measured Not measured Full data
Weirs Lock 5 Upstream Murray 16.33 m 25/05/2018 12:45 Not measured Not measured Not measured 14.8°C 25/05/2018 12:45 336.2 μS/cm 25/05/2018 12:45 Not measured Full data
Weirs Lock 6 Downstream Murray 16.33 m 25/05/2018 12:45 Not measured Not measured Not measured Not measured Not measured Not measured Full data
Weirs Lock 6 Upstream Murray 19.16 m 25/05/2018 12:45 Not measured Not measured Not measured 14.3°C 25/05/2018 12:45 289.6 μS/cm 25/05/2018 12:45 Not measured Full data
Weirs Lock 7 Downstream Murray 19.83 m 25/05/2018 12:45 Not measured Not measured Not measured Not measured Not measured Not measured Full data
Weirs Lock 7 Upstream Murray 22.06 m 25/05/2018 12:45 Not measured Not measured Not measured 14.4°C 25/05/2018 12:45 146.8 μS/cm 25/05/2018 12:45 Not measured Full data
Weirs Lock 8 Upstream Murray 24.35 m 25/05/2018 12:45 Not measured Not measured Not measured 14.4°C 25/05/2018 12:45 143.1 μS/cm 25/05/2018 12:45 Not measured Full data
Weirs Lock 9 Downstream Murray 24.34 m 25/05/2018 12:45 Not measured Not measured Not measured Not measured Not measured Not measured Full data
Weirs Lock 9 Upstream Murray 27.29 m 25/05/2018 12:45 Not measured Not measured Not measured 14.6°C 25/05/2018 12:45 120.2 μS/cm 25/05/2018 12:45 Not measured Full data
River Gauge McCoy Bridge Goulburn 1.46 m 25/05/2018 13:45 903 ML/Day 25/05/2018 13:45 Not measured Not measured 12.3°C 25/05/2018 13:45 87.5 μS/cm 25/05/2018 13:45 Not measured Full data
Storage Menindee Lakes Darling Not measured Not measured 218 GL 25/05/2018 7:45 Not measured Not measured Not measured Not measured Full data
Weirs Mildura Weir downstream Murray 30.97 m 25/05/2018 13:45 Not measured Not measured Not measured 13.8°C 25/05/2018 13:45 111.7 μS/cm 25/05/2018 13:45 Not measured Full data
River Gauge Morgan Downstream Murray Not measured Not measured Not measured 2076.7 ML/d25/05/2018 12:45 Not measured 375.3 μS/cm 25/05/2018 12:45 Not measured Full data
River Gauge Mulwala Canal Murray Not measured Not measured Not measured 0.0 ML/d25/05/2018 7:45 Not measured Not measured Not measured Full data
River Gauge Mundoo Barrage Murray 0.55 m 25/05/2018 7:45 Not measured Not measured Not measured Not measured Not measured Not measured Full data
River Gauge Murray Bridge Murray 0.47 m 25/05/2018 12:45 Not measured Not measured Not measured 15.3°C 25/05/2018 12:45 416.7 μS/cm 25/05/2018 12:45 Not measured Full data
River Gauge Peechelba Ovens 126.33 m 25/05/2018 13:45 373 ML/Day 25/05/2018 13:45 Not measured Not measured 11.5°C 25/05/2018 13:45 66.5 μS/cm 25/05/2018 13:45 Not measured Full data
River Gauge Pinegrove Murray 1.03 m 25/05/2018 13:45 193 ML/Day 25/05/2018 13:45 Not measured Not measured 10.7°C 25/05/2018 13:45 80.3 μS/cm 25/05/2018 13:45 0.0 mm 25/05/2018 9:00 Full data
River Gauge Rochester Campaspe 1.73 m 25/05/2018 13:45 93 ML/Day 25/05/2018 13:45 Not measured Not measured 12.9°C 25/05/2018 13:45 385.8 μS/cm 25/05/2018 13:45 0.0 mm 25/05/2018 9:00 Full data
River Gauge Rufus River Murray 20.1 m 25/05/2018 7:45 Not measured Not measured 1251.5 ML/d25/05/2018 7:45 Not measured 348.9 μS/cm 25/05/2018 12:45 Not measured Full data
Weirs Steven's Weir Downstream Wakool 1.82 m 25/05/2018 13:45 1711 ML/Day 25/05/2018 13:45 Not measured Not measured 12.9°C 25/05/2018 13:45 47.5 μS/cm 25/05/2018 13:45 0.0 mm 2/05/2018 9:00 Full data
Weirs Steven's Weir Upstream Wakool 2.4 m 25/05/2018 14:15 Not measured Not measured Not measured Not measured Not measured Not measured Full data
River Gauge Stoney Crossing Murray 1.55 m 25/05/2018 13:45 727 ML/Day 25/05/2018 13:45 Not measured 709.7 ML/d25/05/2018 7:45 13.2°C 25/05/2018 13:45 160.3 μS/cm 25/05/2018 13:45 Not measured Full data
River Gauge Swan Hill Murray 1.33 m 25/05/2018 13:45 6844 ML/Day 25/05/2018 13:45 Not measured Not measured 12.5°C 25/05/2018 13:45 76.8 μS/cm 25/05/2018 13:45 Not measured Full data
River Gauge Tallandoon Mitta 1.54 m 25/05/2018 13:45 768 ML/Day 25/05/2018 13:45 Not measured Not measured 10.9°C 25/05/2018 13:45 51.7 μS/cm 25/05/2018 13:45 Not measured Full data
River Gauge Tallandoon Mitta 1.54 m 25/05/2018 13:45 768 ML/Day 25/05/2018 13:45 Not measured Not measured 10.9°C 25/05/2018 13:45 51.7 μS/cm 25/05/2018 13:45 Not measured Full data
River Gauge Tauwitchere Barrage Murray 0.55 m 25/05/2018 12:45 Not measured Not measured Not measured Not measured Not measured Not measured Full data
River Gauge Tocumwal Murray 1.87 m 25/05/2018 13:45 7294 ML/Day 25/05/2018 13:45 Not measured Not measured 12.3°C 25/05/2018 13:45 62.6 μS/cm 25/05/2018 13:45 Not measured Full data
River Gauge Torrumbarry Headworks Murray 83.85 m 25/05/2018 13:45 Not measured Not measured 467.3 ML/d25/05/2018 13:45 Not measured Not measured Not measured Full data
Weirs Torrumbarry Weir Downstream Murray 2.34 m 25/05/2018 13:45 6784 ML/Day 25/05/2018 13:45 Not measured Not measured 12.4°C 25/05/2018 13:45 78.0 μS/cm 25/05/2018 13:45 Not measured Full data
Weirs Torrumbarry Weir Downstream Murray 2.34 m 25/05/2018 13:45 6784 ML/Day 25/05/2018 13:45 Not measured Not measured 12.4°C 25/05/2018 13:45 78.0 μS/cm 25/05/2018 13:45 Not measured Full data
Weirs Torrumbarry Weir Downstream Murray 2.34 m 25/05/2018 13:45 6784 ML/Day 25/05/2018 13:45 Not measured Not measured 12.4°C 25/05/2018 13:45 78.0 μS/cm 25/05/2018 13:45 Not measured Full data
Weirs Torrumbarry Weir Upstream Murray 85.83 m 25/05/2018 13:30 Not measured 35 GL 25/05/2018 8:45 Not measured 12.2°C 25/05/2018 8:45 78.3 μS/cm 25/05/2018 7:45 0.0 mm 25/05/2018 9:00 Full data
Weirs Torrumbarry Weir Upstream Murray 85.83 m 25/05/2018 13:30 Not measured 35 GL 25/05/2018 8:45 Not measured 12.2°C 25/05/2018 8:45 78.3 μS/cm 25/05/2018 7:45 0.0 mm 25/05/2018 9:00 Full data
Weirs Torrumbarry Weir Upstream Murray 85.83 m 25/05/2018 13:30 Not measured 35 GL 25/05/2018 8:45 Not measured 12.2°C 25/05/2018 8:45 78.3 μS/cm 25/05/2018 7:45 0.0 mm 25/05/2018 9:00 Full data
River Gauge Wakool Canal Wakool -0.54 m 25/05/2018 13:45 Not measured Not measured 0.0 ML/d25/05/2018 7:45 Not measured Not measured Not measured Full data
River Gauge Wakool Junction Murray 3.09 m 25/05/2018 13:45 8078 ML/Day 25/05/2018 13:45 Not measured Not measured 12.7°C 25/05/2018 13:45 86.5 μS/cm 25/05/2018 13:45 Not measured Full data
River Gauge Weir 32 Upstream Darling 1.31 m 25/05/2018 13:45 169 ML/Day 25/05/2018 13:45 Not measured Not measured 13.7°C 25/05/2018 13:45 733.5 μS/cm 25/05/2018 13:45 Not measured Full data
Weirs Wentworth Weir Murray 27.63 m 25/05/2018 13:45 Not measured Not measured 7501.8 ML/d25/05/2018 8:45 Not measured 110.0 μS/cm 25/05/2018 7:45 0.0 mm 24/05/2018 9:00 Full data
River Gauge Wilcania Darling 0.04 m 25/05/2018 13:45 18 ML/Day 25/05/2018 13:45 Not measured Not measured 18.9°C 25/05/2018 14:00 0.0 μS/cm 25/05/2018 13:45 Not measured Full data
River Gauge Yarrawonga Main Channel Murray 122.82 m 25/05/2018 13:45 Not measured Not measured 0.0 ML/d25/05/2018 13:45 Not measured Not measured Not measured Full data
Weirs Yarrawonga Weir Downstream Murray 1.22 m 25/05/2018 14:00 6602 ML/Day 25/05/2018 14:00 Not measured Not measured 12.9°C 25/05/2018 14:00 82.4 μS/cm 25/05/2018 14:00 Not measured Full data
Weirs Yarrawonga Weir Upstream Murray 123.74 m 25/05/2018 13:45 Not measured Not measured Not measured Not measured Not measured 0.0 mm 25/05/2018 9:00 Full data